Haddon Township, New Jersey
Current Conditions -  °F | °C
As of 3:54 AM on Thursday 23 Oct 2014 (Local Time) from KPHL Reporting Station
Overcast Overcast  
Wind Chill: 53°   Ceiling: 3000
Heat Index: 53°   Visibility: 10mi
Dew Point: 45°   Wind: 16mph
Humidity: 74%   Direction: 330°NNW
Pressure: 29.75"   Gusts: 29mph
Location:  39.9079°N, 75.0838°W
Report Text: KPHL 230754Z 33014G25KT 10SM BKN030 BKN042 OVC060 12/07 A2975 RMK AO2 PK WND 33026/0655 SLP072 T01170072 $
Loading
Personal Weather Stations






























Interactive Weather Map
Tropical Storm Tracking
New forecast layout! Learn more

10-Day Weather Forecast

Advertisements
Track Severe Weather on mobile